createdAt,value
2019-04-14T00:02:38.239Z,42.70
2019-04-14T00:05:34.451Z,41.90
2019-04-14T00:08:30.622Z,42.00
2019-04-14T00:11:25.941Z,41.90
2019-04-14T00:14:22.911Z,41.70
2019-04-14T00:17:19.441Z,41.80
2019-04-14T00:20:16.514Z,41.50
2019-04-14T00:23:11.669Z,41.60
2019-04-14T00:26:31.501Z,41.60
2019-04-14T00:29:26.671Z,41.80
2019-04-14T00:32:22.585Z,41.60
2019-04-14T00:35:36.442Z,41.60
2019-04-14T00:38:39.364Z,41.60
2019-04-14T00:41:58.351Z,41.80
2019-04-14T00:44:58.291Z,41.80
2019-04-14T00:48:03.382Z,42.00
2019-04-14T00:50:54.597Z,42.20
2019-04-14T00:53:49.702Z,42.30
2019-04-14T00:56:45.467Z,42.30
2019-04-14T00:59:40.381Z,42.30
2019-04-14T01:02:36.366Z,42.40
2019-04-14T01:05:33.371Z,42.50
2019-04-14T01:08:29.156Z,42.50
2019-04-14T01:11:24.885Z,42.40
2019-04-14T01:14:21.185Z,42.50
2019-04-14T01:17:17.629Z,42.50
2019-04-14T01:20:14.651Z,42.60
2019-04-14T01:23:10.604Z,42.50
2019-04-14T01:26:07.122Z,42.50
2019-04-14T01:29:05.737Z,42.50
2019-04-14T01:32:02.235Z,42.50
2019-04-14T01:34:58.917Z,42.60
2019-04-14T01:37:55.777Z,42.60
2019-04-14T01:40:51.065Z,42.60
2019-04-14T01:43:45.944Z,42.50
2019-04-14T01:46:44.130Z,42.60
2019-04-14T01:49:39.747Z,42.70
2019-04-14T01:52:52.277Z,42.80
2019-04-14T01:55:59.210Z,42.80
2019-04-14T01:58:57.927Z,42.90
2019-04-14T02:01:56.529Z,42.80
2019-04-14T02:04:52.909Z,42.80
2019-04-14T02:07:49.355Z,42.80
2019-04-14T02:10:45.635Z,42.80
2019-04-14T02:13:42.658Z,42.80
2019-04-14T02:16:41.906Z,42.80
2019-04-14T02:19:34.915Z,42.80
2019-04-14T02:22:31.175Z,42.80
2019-04-14T02:25:27.402Z,42.80
2019-04-14T02:28:22.646Z,42.80
2019-04-14T02:31:39.285Z,42.80
2019-04-14T02:34:41.886Z,42.80
2019-04-14T02:37:34.690Z,42.90
2019-04-14T02:40:58.037Z,42.90
2019-04-14T02:43:44.997Z,42.90
2019-04-14T02:46:34.591Z,43.10
2019-04-14T02:49:29.419Z,42.90
2019-04-14T02:52:24.680Z,42.90
2019-04-14T02:55:31.256Z,42.80
2019-04-14T02:58:20.281Z,42.90
2019-04-14T03:01:15.051Z,42.80
2019-04-14T03:04:09.460Z,42.70
2019-04-14T03:07:10.310Z,42.70
2019-04-14T03:09:58.602Z,42.70
2019-04-14T03:13:01.451Z,42.70
2019-04-14T03:19:06.607Z,42.90
2019-04-14T03:25:22.814Z,42.80
2019-04-14T03:28:38.046Z,42.70
2019-04-14T03:31:53.977Z,42.70
2019-04-14T03:37:48.457Z,42.70
2019-04-14T03:40:21.728Z,42.50
2019-04-14T03:43:18.855Z,42.60
2019-04-14T03:49:17.476Z,42.50
2019-04-14T03:54:57.032Z,42.40
2019-04-14T03:57:34.444Z,42.30
2019-04-14T04:00:33.523Z,42.20
2019-04-14T04:03:32.489Z,42.00
2019-04-14T04:06:27.468Z,41.80
2019-04-14T04:09:23.723Z,42.30
2019-04-14T04:12:20.282Z,42.40
2019-04-14T04:15:15.739Z,42.30
2019-04-14T04:18:30.905Z,42.00
2019-04-14T04:21:46.634Z,42.30
2019-04-14T04:24:47.562Z,42.30
2019-04-14T04:28:01.606Z,42.30
2019-04-14T04:31:15.569Z,42.20
2019-04-14T04:34:46.703Z,42.30
2019-04-14T04:37:50.021Z,42.40
2019-04-14T04:40:46.237Z,42.40
2019-04-14T04:43:47.889Z,42.20
2019-04-14T04:46:45.987Z,42.20
2019-04-14T04:49:42.637Z,42.20
2019-04-14T04:52:38.635Z,42.20
2019-04-14T04:55:46.037Z,42.40
2019-04-14T04:58:39.139Z,42.20
2019-04-14T05:01:42.892Z,42.30
2019-04-14T05:04:41.528Z,42.10
2019-04-14T05:07:36.888Z,42.30
2019-04-14T05:10:48.134Z,42.30
2019-04-14T05:14:10.866Z,42.20
2019-04-14T05:17:07.919Z,42.20
2019-04-14T05:20:07.470Z,42.40
2019-04-14T05:23:10.130Z,42.40
2019-04-14T05:26:11.247Z,42.20
2019-04-14T05:29:06.401Z,42.30
2019-04-14T05:32:22.406Z,42.50
2019-04-14T05:35:19.012Z,42.40
2019-04-14T05:38:18.958Z,42.40
2019-04-14T05:41:15.845Z,42.50
2019-04-14T05:44:18.641Z,42.50
2019-04-14T05:47:13.533Z,42.50
2019-04-14T05:50:13.713Z,42.50
2019-04-14T05:53:13.182Z,42.50
2019-04-14T05:56:09.695Z,42.50
2019-04-14T05:59:09.322Z,42.70
2019-04-14T06:02:05.522Z,42.60
2019-04-14T06:05:03.605Z,42.60
2019-04-14T06:08:02.398Z,42.80
2019-04-14T06:10:58.347Z,42.70
2019-04-14T06:13:54.047Z,42.70
2019-04-14T06:16:51.496Z,42.80
2019-04-14T06:19:51.905Z,42.70
2019-04-14T06:22:48.893Z,42.90
2019-04-14T06:25:49.989Z,42.80
2019-04-14T06:28:45.244Z,42.90
2019-04-14T06:31:57.593Z,42.90
2019-04-14T06:35:13.861Z,43.00
2019-04-14T06:38:15.949Z,42.90
2019-04-14T06:41:14.552Z,42.90
2019-04-14T06:44:21.035Z,42.70
2019-04-14T06:47:16.959Z,42.90
2019-04-14T06:50:12.269Z,43.40
2019-04-14T06:53:07.383Z,42.90
2019-04-14T06:56:11.066Z,42.70
2019-04-14T06:59:27.237Z,42.70
2019-04-14T07:02:22.604Z,43.20
2019-04-14T07:05:24.033Z,42.70
2019-04-14T07:08:20.845Z,42.70
2019-04-14T07:11:16.481Z,42.80
2019-04-14T07:14:13.995Z,42.60
2019-04-14T07:17:09.083Z,42.50
2019-04-14T07:20:04.363Z,42.40
2019-04-14T07:23:00.847Z,42.50
2019-04-14T07:25:57.489Z,42.50
2019-04-14T07:28:56.770Z,42.40
2019-04-14T07:32:19.105Z,42.30
2019-04-14T07:35:33.109Z,42.30
2019-04-14T07:38:40.825Z,42.20
2019-04-14T07:41:44.701Z,42.20
2019-04-14T07:45:04.972Z,42.00
2019-04-14T07:48:06.760Z,42.40
2019-04-14T07:51:24.467Z,42.20
2019-04-14T07:54:26.435Z,42.40
2019-04-14T07:57:41.169Z,42.30
2019-04-14T08:00:41.443Z,42.20
2019-04-14T08:03:59.173Z,41.90
2019-04-14T08:06:57.384Z,42.00
2019-04-14T08:09:55.149Z,41.80
2019-04-14T08:12:51.235Z,42.00
2019-04-14T08:15:46.027Z,42.00
2019-04-14T08:18:41.986Z,41.90
2019-04-14T08:21:38.024Z,41.70
2019-04-14T08:24:33.144Z,41.80
2019-04-14T08:27:28.544Z,41.60
2019-04-14T08:30:23.874Z,41.60
2019-04-14T08:33:19.491Z,41.30
2019-04-14T08:36:15.034Z,41.30
2019-04-14T08:39:11.408Z,41.40
2019-04-14T08:42:15.189Z,41.50
2019-04-14T08:45:17.575Z,41.40
2019-04-14T08:48:34.469Z,41.20
2019-04-14T08:51:48.274Z,40.90
2019-04-14T08:55:07.219Z,41.30
2019-04-14T08:58:18.590Z,41.00
2019-04-14T09:01:21.617Z,41.10
2019-04-14T09:04:22.525Z,40.90
2019-04-14T09:07:34.957Z,40.70
2019-04-14T09:10:33.121Z,40.80
2019-04-14T09:13:28.242Z,41.00
2019-04-14T09:16:24.961Z,39.80
2019-04-14T09:19:25.971Z,40.70
2019-04-14T09:22:21.367Z,40.50
2019-04-14T09:25:16.229Z,40.60
2019-04-14T09:28:11.693Z,40.40
2019-04-14T09:31:07.093Z,40.40
2019-04-14T09:34:02.417Z,40.40
2019-04-14T09:36:59.222Z,40.50
2019-04-14T09:39:57.726Z,40.30
2019-04-14T09:42:53.585Z,40.50
2019-04-14T09:45:49.651Z,40.50
2019-04-14T09:48:45.788Z,40.10
2019-04-14T09:51:41.717Z,39.40
2019-04-14T09:54:40.868Z,40.20
2019-04-14T09:57:43.960Z,40.00
2019-04-14T10:00:41.885Z,40.40
2019-04-14T10:03:55.755Z,40.40
2019-04-14T10:06:52.846Z,40.10
2019-04-14T10:09:47.621Z,40.10
2019-04-14T10:12:46.878Z,40.20
2019-04-14T10:15:45.361Z,40.00
2019-04-14T10:18:40.132Z,40.30
2019-04-14T10:21:35.726Z,40.20
2019-04-14T10:24:31.750Z,40.20
2019-04-14T10:27:26.988Z,39.90
2019-04-14T10:30:23.593Z,40.20
2019-04-14T10:33:19.202Z,40.10
2019-04-14T10:36:14.422Z,40.10
2019-04-14T10:39:10.757Z,40.20
2019-04-14T10:42:05.743Z,40.30
2019-04-14T10:45:02.534Z,40.10
2019-04-14T10:47:58.195Z,40.00
2019-04-14T10:50:54.127Z,40.00
2019-04-14T10:53:48.926Z,40.10
2019-04-14T10:56:48.115Z,40.00
2019-04-14T10:59:43.496Z,40.40
2019-04-14T11:02:38.955Z,40.20
2019-04-14T11:05:41.636Z,40.20
2019-04-14T11:08:36.481Z,40.80
2019-04-14T11:11:31.520Z,40.30
2019-04-14T11:14:26.564Z,40.30
2019-04-14T11:17:21.651Z,40.20
2019-04-14T11:20:18.466Z,40.20
2019-04-14T11:23:13.628Z,40.20
2019-04-14T11:26:09.726Z,40.30
2019-04-14T11:29:05.310Z,40.40
2019-04-14T11:32:18.893Z,40.20
2019-04-14T11:35:27.108Z,40.40
2019-04-14T11:38:31.579Z,40.30
2019-04-14T11:41:26.503Z,40.40
2019-04-14T11:44:22.166Z,40.30
2019-04-14T11:47:17.439Z,40.20
2019-04-14T11:50:13.840Z,40.20
2019-04-14T11:53:09.207Z,40.40
2019-04-14T11:56:04.342Z,40.10
2019-04-14T11:58:59.406Z,40.30
2019-04-14T12:02:02.230Z,40.20
2019-04-14T12:05:04.026Z,40.20
2019-04-14T12:08:15.360Z,40.10
2019-04-14T12:11:10.741Z,40.20
2019-04-14T12:14:07.520Z,40.20
2019-04-14T12:17:02.735Z,40.30
2019-04-14T12:19:58.338Z,40.40
2019-04-14T12:22:53.778Z,40.50
2019-04-14T12:25:49.382Z,40.20
2019-04-14T12:28:45.049Z,40.20
2019-04-14T12:31:41.903Z,40.30
2019-04-14T12:34:37.693Z,40.30
2019-04-14T12:37:33.525Z,40.20
2019-04-14T12:40:30.862Z,40.20
2019-04-14T12:43:36.827Z,40.20
2019-04-14T12:46:42.280Z,40.40
2019-04-14T12:49:42.580Z,40.40
2019-04-14T12:52:41.840Z,40.40
2019-04-14T12:55:37.239Z,40.40
2019-04-14T12:58:52.894Z,40.50
2019-04-14T13:02:03.215Z,40.40
2019-04-14T13:04:58.120Z,40.40
2019-04-14T13:07:53.278Z,40.50
2019-04-14T13:10:50.926Z,40.50
2019-04-14T13:13:46.183Z,40.50
2019-04-14T13:16:42.130Z,40.50
2019-04-14T13:19:40.071Z,40.50
2019-04-14T13:22:37.461Z,40.50
2019-04-14T13:25:36.468Z,40.50
2019-04-14T13:28:32.970Z,40.50
2019-04-14T13:31:29.997Z,40.50
2019-04-14T13:34:28.220Z,40.50
2019-04-14T13:37:24.939Z,40.50
2019-04-14T13:40:21.265Z,39.80
2019-04-14T13:43:17.286Z,39.00
2019-04-14T13:46:12.243Z,39.70
2019-04-14T13:49:08.347Z,40.40
2019-04-14T13:52:03.656Z,40.40
2019-04-14T13:54:59.479Z,40.10
2019-04-14T13:57:56.291Z,40.00
2019-04-14T14:00:52.373Z,39.80
2019-04-14T14:03:49.618Z,39.50
2019-04-14T14:06:44.911Z,40.00
2019-04-14T14:09:39.622Z,40.20
2019-04-14T14:13:05.123Z,40.10
2019-04-14T14:16:16.932Z,40.20
2019-04-14T14:19:21.372Z,39.70
2019-04-14T14:22:43.393Z,39.70
2019-04-14T14:25:42.966Z,39.70
2019-04-14T14:28:39.114Z,39.90
2019-04-14T14:31:37.459Z,40.00
2019-04-14T14:34:33.523Z,39.80
2019-04-14T14:37:34.742Z,38.90
2019-04-14T14:40:32.499Z,39.00
2019-04-14T14:43:28.793Z,39.30
2019-04-14T14:46:45.150Z,39.70
2019-04-14T14:49:56.500Z,39.40
2019-04-14T14:52:51.991Z,39.50
2019-04-14T14:55:47.580Z,39.30
2019-04-14T14:58:45.341Z,39.70
2019-04-14T15:01:41.206Z,39.50
2019-04-14T15:04:36.011Z,39.80
2019-04-14T15:07:33.971Z,39.70
2019-04-14T15:10:29.694Z,39.80
2019-04-14T15:13:25.076Z,39.70
2019-04-14T15:16:20.402Z,40.30
2019-04-14T15:19:15.598Z,40.10
2019-04-14T15:22:11.768Z,39.90
2019-04-14T15:25:06.968Z,39.70
2019-04-14T15:28:02.546Z,39.70
2019-04-14T15:30:58.436Z,40.20
2019-04-14T15:33:54.672Z,39.70
2019-04-14T15:36:51.554Z,40.00
2019-04-14T15:39:46.560Z,40.30
2019-04-14T15:42:42.890Z,40.30
2019-04-14T15:45:42.587Z,40.20
2019-04-14T15:48:37.762Z,40.20
2019-04-14T15:51:33.282Z,40.30
2019-04-14T15:54:29.991Z,40.40
2019-04-14T15:57:34.530Z,40.20
2019-04-14T16:00:46.405Z,40.30
2019-04-14T16:04:04.951Z,40.40
2019-04-14T16:07:07.277Z,40.40
2019-04-14T16:10:26.835Z,40.30
2019-04-14T16:13:49.221Z,40.30
2019-04-14T16:17:10.132Z,40.40
2019-04-14T16:20:11.260Z,40.60
2019-04-14T16:23:07.209Z,40.60
2019-04-14T16:26:20.500Z,40.60
2019-04-14T16:29:39.905Z,40.60
2019-04-14T16:33:07.898Z,40.60
2019-04-14T16:36:03.049Z,40.50
2019-04-14T16:38:59.957Z,40.60
2019-04-14T16:41:55.523Z,40.60
2019-04-14T16:44:52.527Z,40.70
2019-04-14T16:47:47.628Z,39.90
2019-04-14T16:50:42.565Z,40.60
2019-04-14T16:53:39.929Z,40.10
2019-04-14T16:56:51.632Z,40.40
2019-04-14T16:59:47.201Z,40.60
2019-04-14T17:02:42.171Z,40.60
2019-04-14T17:05:39.029Z,39.60
2019-04-14T17:08:33.736Z,40.60
2019-04-14T17:11:29.409Z,40.50
2019-04-14T17:14:40.987Z,40.60
2019-04-14T17:18:06.095Z,40.60
2019-04-14T17:21:17.394Z,40.60
2019-04-14T17:24:33.729Z,40.00
2019-04-14T17:27:44.660Z,40.60
2019-04-14T17:30:46.683Z,40.30
2019-04-14T17:33:55.676Z,40.10
2019-04-14T17:37:11.805Z,40.40
2019-04-14T17:40:24.199Z,40.30
2019-04-14T17:43:39.942Z,40.30
2019-04-14T17:46:52.208Z,40.00
2019-04-14T17:50:04.833Z,40.30
2019-04-14T17:53:22.007Z,39.80
2019-04-14T17:56:31.335Z,40.30
2019-04-14T17:59:50.647Z,40.10
2019-04-14T18:03:06.522Z,39.90
2019-04-14T18:06:09.309Z,40.20
2019-04-14T18:09:22.350Z,40.40
2019-04-14T18:12:25.871Z,40.20
2019-04-14T18:15:34.831Z,40.40
2019-04-14T18:18:40.295Z,40.40
2019-04-14T18:21:35.933Z,40.50
2019-04-14T18:24:41.549Z,40.30
2019-04-14T18:27:27.868Z,40.40
2019-04-14T18:30:28.067Z,40.20
2019-04-14T18:33:44.076Z,40.40
2019-04-14T18:36:43.522Z,40.10
2019-04-14T18:39:57.478Z,40.50
2019-04-14T18:43:09.094Z,40.40
2019-04-14T18:46:14.989Z,40.50
2019-04-14T18:49:28.471Z,40.50
2019-04-14T18:52:40.087Z,40.50
2019-04-14T18:55:59.370Z,40.50
2019-04-14T18:59:12.658Z,40.70
2019-04-14T19:02:08.193Z,40.60
2019-04-14T19:05:04.612Z,40.60
2019-04-14T19:08:00.187Z,40.70
2019-04-14T19:11:10.593Z,40.80
2019-04-14T19:14:08.143Z,40.50
2019-04-14T19:17:17.147Z,40.80
2019-04-14T19:20:13.017Z,40.90
2019-04-14T19:23:08.409Z,40.90
2019-04-14T19:26:03.773Z,40.90
2019-04-14T19:28:59.416Z,40.90
2019-04-14T19:31:56.248Z,40.90
2019-04-14T19:34:51.438Z,41.10
2019-04-14T19:37:47.049Z,41.00
2019-04-14T19:40:42.723Z,40.50
2019-04-14T19:43:37.639Z,41.10
2019-04-14T19:46:33.020Z,41.00
2019-04-14T19:49:28.604Z,41.10
2019-04-14T19:52:25.215Z,41.10
2019-04-14T19:55:20.940Z,41.10
2019-04-14T19:58:16.482Z,41.10
2019-04-14T20:01:12.560Z,41.10
2019-04-14T20:04:08.211Z,41.10
2019-04-14T20:07:03.656Z,41.00
2019-04-14T20:09:59.370Z,41.10
2019-04-14T20:12:55.169Z,41.10
2019-04-14T20:16:11.632Z,41.10
2019-04-14T20:19:23.523Z,41.10
2019-04-14T20:22:47.018Z,41.10
2019-04-14T20:26:09.551Z,41.20
2019-04-14T20:29:13.821Z,41.20
2019-04-14T20:32:18.994Z,41.30
2019-04-14T20:35:14.511Z,41.30
2019-04-14T20:38:10.318Z,41.30
2019-04-14T20:41:06.733Z,41.30
2019-04-14T20:44:03.063Z,41.30
2019-04-14T20:46:58.347Z,41.40
2019-04-14T20:49:53.377Z,41.40
2019-04-14T20:52:48.680Z,41.40
2019-04-14T20:55:47.170Z,41.40
2019-04-14T20:58:40.464Z,41.50
2019-04-14T21:01:38.058Z,41.50
2019-04-14T21:04:45.457Z,41.50
2019-04-14T21:08:01.549Z,41.50
2019-04-14T21:11:03.406Z,41.50
2019-04-14T21:14:16.649Z,41.50
2019-04-14T21:17:30.875Z,41.60
2019-04-14T21:20:41.509Z,41.50
2019-04-14T21:23:43.719Z,41.50
2019-04-14T21:26:52.747Z,41.50
2019-04-14T21:29:58.386Z,41.50
2019-04-14T21:33:04.341Z,41.50
2019-04-14T21:36:10.693Z,41.60
2019-04-14T21:39:36.332Z,41.60
2019-04-14T21:42:31.425Z,41.70
2019-04-14T21:45:26.470Z,41.60
2019-04-14T21:48:21.422Z,41.60
2019-04-14T21:51:16.953Z,41.70
2019-04-14T21:54:12.456Z,41.80
2019-04-14T21:57:25.547Z,41.80
2019-04-14T22:00:29.413Z,41.80
2019-04-14T22:03:29.656Z,42.70
2019-04-14T22:06:34.279Z,41.80
2019-04-14T22:09:36.622Z,41.90
2019-04-14T22:12:32.015Z,41.90
2019-04-14T22:15:27.166Z,41.80
2019-04-14T22:18:22.347Z,41.80
2019-04-14T22:21:18.115Z,41.80
2019-04-14T22:24:14.010Z,41.90
2019-04-14T22:27:10.211Z,42.00
2019-04-14T22:30:05.378Z,42.00
2019-04-14T22:33:00.472Z,42.10
2019-04-14T22:35:56.167Z,42.10
2019-04-14T22:38:51.590Z,42.00
2019-04-14T22:41:47.752Z,42.00
2019-04-14T22:44:42.919Z,42.00
2019-04-14T22:47:38.157Z,42.00
2019-04-14T22:50:33.636Z,42.00
2019-04-14T22:53:29.757Z,42.10
2019-04-14T22:56:24.986Z,42.00
2019-04-14T22:59:19.988Z,42.10
2019-04-14T23:02:23.673Z,42.20
2019-04-14T23:05:35.427Z,42.20
2019-04-14T23:08:36.751Z,42.20
2019-04-14T23:11:46.028Z,42.20
2019-04-14T23:14:49.045Z,42.20
2019-04-14T23:17:48.948Z,42.20
2019-04-14T23:20:59.615Z,42.30
2019-04-14T23:24:12.426Z,42.40
2019-04-14T23:27:07.321Z,42.40
2019-04-14T23:30:02.152Z,42.10
2019-04-14T23:32:57.604Z,42.20
2019-04-14T23:35:52.554Z,41.90
2019-04-14T23:38:47.862Z,42.00
2019-04-14T23:41:43.263Z,42.20
2019-04-14T23:44:38.259Z,42.10
2019-04-14T23:47:33.460Z,42.30
2019-04-14T23:50:28.858Z,42.20
2019-04-14T23:53:24.112Z,42.20
2019-04-14T23:56:18.850Z,42.30
2019-04-14T23:59:14.267Z,42.20
